Plant City, FL (33567)

6:30 PM EDT on August 21, 2014 (GMT -0400)
South Plant City | Change Station
CLOSE
Current Station
Personal Weather Station
Location: Plant City, FL
Elevation: 98 ft
Nearby Weather Stations

Elev 98 ft 27.95 °N, 82.14 °W | Updated 4 minutes ago

Scattered Clouds
Scattered Clouds
92.7 °F
Feels Like 107 °F
N
0.0
Wind Variable Wind from SE
Gusts 5.0 mph

Today
High -- | Low -- °F
--% Chance of Precip.
Yesterday
High -- | Low -- °F
Precip. -- in
7:01 AM 8:01 PM
Waning Crescent, 12% visible
Pressure 30.05 in
Visibility 12.0 miles
Clouds Scattered Clouds 6500 ft
Heat Index 107 °F
Dew Point 77 °F
Humidity 60%
Rainfall 0.00 in
Snow Depth Not available.
UV 0.0 out of 12
Pollen 4.50 out of 12
Air Quality Not available.
Flu Activity Not available.
METAR KLAL 212150Z 15007KT 12SM VCSH SCT065 34/20 A3005

More Conditions Fewer Conditions

Pressure 30.05 in
Visibility 12.0 miles
Clouds Scattered Clouds 6500 ft
Heat Index 107 °F
Dew Point 77 °F
Humidity 60%
Rainfall 0.00 in
Snow Depth Not available.
UV 0.0 out of 12
Pollen 4.50 out of 12
Air Quality Not available.
Flu Activity Not available.
METAR KLAL 212150Z 15007KT 12SM VCSH SCT065 34/20 A3005

More Conditions Fewer Conditions

10-Day Weather Forecast

Almanac

Astronomy

Aug. 21, 2014 Rise Set
Actual Time 7:01 AM EDT 8:01 PM EDT
Civil Twilight 6:37 AM EDT 8:25 PM EDT
Nautical Twilight 6:08 AM EDT 8:53 PM EDT
Astronomical Twilight 5:39 AM EDT 9:23 PM EDT
Moon 3:39 AM EDT 5:21 PM EDT
Length of Visible Light 13h 47m
Length of Day
12h 59m
Tomorrow will be 1m 30s shorter.
Waning Crescent, 12% of the Moon is Illuminated
Today
Waning Crescent
Aug 25
New
Sep 2
First Quarter
Sep 8
Full
Sep 15
Last Quarter

Today's Extremes

State Highs State Lows

Community

WunderPhotos

Upload Photos

1,746,038 photos uploaded!

WunderBlogs® & News

Nearby

Snow Depth

Station Depth Elevation
No new snow has been reported.

Earthquake Activity

City Distance Mag. Time & Date
No recent earthquake activity has been reported nearby.
Minimum magnitude displayed is 2.5.

Coastal Water Temperatures

Place Temperature
St Petersburg, FL 91.9 °F
Old Port Tampa, FL 89.1 °F
McKay Bay Entrance, FL 90.0 °F

Nearby Weather Stations